sensor_id;sensor_type;location;lat;lon;timestamp;P1;durP1;ratioP1;P2;durP2;ratioP2
23747;SDS011;12054;53.662;10.126;2022-12-07T00:02:17;22.05;;;12.68;;
23747;SDS011;12054;53.662;10.126;2022-12-07T00:04:42;23.08;;;12.82;;
23747;SDS011;12054;53.662;10.126;2022-12-07T00:07:08;25.00;;;13.02;;
23747;SDS011;12054;53.662;10.126;2022-12-07T00:09:33;22.63;;;13.18;;
23747;SDS011;12054;53.662;10.126;2022-12-07T00:11:59;21.88;;;11.10;;
23747;SDS011;12054;53.662;10.126;2022-12-07T00:14:24;23.63;;;13.52;;
23747;SDS011;12054;53.662;10.126;2022-12-07T00:16:50;27.63;;;14.25;;
23747;SDS011;12054;53.662;10.126;2022-12-07T00:19:16;25.65;;;13.43;;
23747;SDS011;12054;53.662;10.126;2022-12-07T00:21:42;26.42;;;14.13;;
23747;SDS011;12054;53.662;10.126;2022-12-07T00:24:09;21.55;;;12.85;;
23747;SDS011;12054;53.662;10.126;2022-12-07T00:26:36;22.67;;;13.70;;
23747;SDS011;12054;53.662;10.126;2022-12-07T00:29:05;24.33;;;13.85;;
23747;SDS011;12054;53.662;10.126;2022-12-07T00:31:34;25.15;;;13.80;;
23747;SDS011;12054;53.662;10.126;2022-12-07T00:34:03;24.92;;;14.00;;
23747;SDS011;12054;53.662;10.126;2022-12-07T00:36:32;26.60;;;14.50;;
23747;SDS011;12054;53.662;10.126;2022-12-07T00:38:58;26.17;;;14.63;;
23747;SDS011;12054;53.662;10.126;2022-12-07T00:41:25;29.80;;;15.35;;
23747;SDS011;12054;53.662;10.126;2022-12-07T00:43:52;29.63;;;15.05;;
23747;SDS011;12054;53.662;10.126;2022-12-07T00:46:18;29.55;;;15.85;;
23747;SDS011;12054;53.662;10.126;2022-12-07T00:48:45;31.23;;;16.45;;
23747;SDS011;12054;53.662;10.126;2022-12-07T00:51:12;28.30;;;15.73;;
23747;SDS011;12054;53.662;10.126;2022-12-07T00:53:39;27.30;;;16.13;;
23747;SDS011;12054;53.662;10.126;2022-12-07T00:56:06;28.95;;;16.52;;
23747;SDS011;12054;53.662;10.126;2022-12-07T00:58:37;29.05;;;16.00;;
23747;SDS011;12054;53.662;10.126;2022-12-07T01:01:03;26.48;;;15.45;;
23747;SDS011;12054;53.662;10.126;2022-12-07T01:03:30;30.15;;;15.60;;
23747;SDS011;12054;53.662;10.126;2022-12-07T01:05:55;26.17;;;14.52;;
23747;SDS011;12054;53.662;10.126;2022-12-07T01:08:22;27.73;;;15.20;;
23747;SDS011;12054;53.662;10.126;2022-12-07T01:10:56;29.33;;;15.60;;
23747;SDS011;12054;53.662;10.126;2022-12-07T01:13:23;26.75;;;14.82;;
23747;SDS011;12054;53.662;10.126;2022-12-07T01:15:49;25.92;;;14.82;;
23747;SDS011;12054;53.662;10.126;2022-12-07T01:18:14;28.75;;;14.43;;
23747;SDS011;12054;53.662;10.126;2022-12-07T01:20:40;24.73;;;13.93;;
23747;SDS011;12054;53.662;10.126;2022-12-07T01:23:06;26.00;;;13.10;;
23747;SDS011;12054;53.662;10.126;2022-12-07T01:25:31;23.42;;;12.68;;
23747;SDS011;12054;53.662;10.126;2022-12-07T01:27:57;21.58;;;12.15;;
23747;SDS011;12054;53.662;10.126;2022-12-07T01:30:22;20.83;;;11.70;;
23747;SDS011;12054;53.662;10.126;2022-12-07T01:32:48;22.27;;;11.95;;
23747;SDS011;12054;53.662;10.126;2022-12-07T01:35:13;23.02;;;12.00;;
23747;SDS011;12054;53.662;10.126;2022-12-07T01:37:39;19.23;;;10.70;;
23747;SDS011;12054;53.662;10.126;2022-12-07T01:40:06;23.45;;;10.50;;
23747;SDS011;12054;53.662;10.126;2022-12-07T01:42:32;19.88;;;10.70;;
23747;SDS011;12054;53.662;10.126;2022-12-07T01:48:00;18.00;;;9.77;;
23747;SDS011;12054;53.662;10.126;2022-12-07T01:50:26;18.38;;;10.88;;
23747;SDS011;12054;53.662;10.126;2022-12-07T01:52:53;19.95;;;9.93;;
23747;SDS011;12054;53.662;10.126;2022-12-07T01:55:22;19.00;;;9.30;;
23747;SDS011;12054;53.662;10.126;2022-12-07T01:57:49;15.95;;;8.55;;
23747;SDS011;12054;53.662;10.126;2022-12-07T02:00:18;18.95;;;8.32;;
23747;SDS011;12054;53.662;10.126;2022-12-07T02:02:55;16.00;;;8.40;;
23747;SDS011;12054;53.662;10.126;2022-12-07T02:05:28;15.05;;;8.52;;
23747;SDS011;12054;53.662;10.126;2022-12-07T02:07:55;13.70;;;8.13;;
23747;SDS011;12054;53.662;10.126;2022-12-07T02:12:53;15.65;;;8.13;;
23747;SDS011;12054;53.662;10.126;2022-12-07T02:16:00;13.55;;;8.32;;
23747;SDS011;12054;53.662;10.126;2022-12-07T02:27:07;12.07;;;7.05;;
23747;SDS011;12054;53.662;10.126;2022-12-07T02:35:18;12.50;;;6.38;;
23747;SDS011;12054;53.662;10.126;2022-12-07T02:37:55;10.77;;;6.00;;
23747;SDS011;12054;53.662;10.126;2022-12-07T02:40:28;11.77;;;6.13;;
23747;SDS011;12054;53.662;10.126;2022-12-07T02:43:02;10.25;;;5.93;;
23747;SDS011;12054;53.662;10.126;2022-12-07T02:45:37;11.68;;;6.18;;
23747;SDS011;12054;53.662;10.126;2022-12-07T02:48:05;11.32;;;6.15;;
23747;SDS011;12054;53.662;10.126;2022-12-07T02:50:33;10.40;;;5.47;;
23747;SDS011;12054;53.662;10.126;2022-12-07T02:52:59;12.50;;;5.60;;
23747;SDS011;12054;53.662;10.126;2022-12-07T02:55:26;10.27;;;4.85;;
23747;SDS011;12054;53.662;10.126;2022-12-07T02:58:06;9.32;;;4.50;;
23747;SDS011;12054;53.662;10.126;2022-12-07T03:03:55;8.20;;;3.90;;
23747;SDS011;12054;53.662;10.126;2022-12-07T03:06:35;9.75;;;4.05;;
23747;SDS011;12054;53.662;10.126;2022-12-07T03:11:34;6.95;;;3.60;;
23747;SDS011;12054;53.662;10.126;2022-12-07T03:14:23;7.43;;;4.10;;
23747;SDS011;12054;53.662;10.126;2022-12-07T03:16:58;9.20;;;3.78;;
23747;SDS011;12054;53.662;10.126;2022-12-07T03:19:38;6.82;;;3.50;;
23747;SDS011;12054;53.662;10.126;2022-12-07T03:22:07;4.85;;;2.78;;
23747;SDS011;12054;53.662;10.126;2022-12-07T03:24:37;8.00;;;3.13;;
23747;SDS011;12054;53.662;10.126;2022-12-07T03:27:15;6.22;;;3.13;;
23747;SDS011;12054;53.662;10.126;2022-12-07T03:29:46;6.80;;;2.70;;
23747;SDS011;12054;53.662;10.126;2022-12-07T03:32:18;4.85;;;2.47;;
23747;SDS011;12054;53.662;10.126;2022-12-07T03:34:52;4.68;;;2.53;;
23747;SDS011;12054;53.662;10.126;2022-12-07T03:37:32;3.33;;;2.53;;
23747;SDS011;12054;53.662;10.126;2022-12-07T03:40:14;4.18;;;2.42;;
23747;SDS011;12054;53.662;10.126;2022-12-07T03:42:43;4.53;;;2.40;;
23747;SDS011;12054;53.662;10.126;2022-12-07T03:45:09;3.97;;;2.20;;
23747;SDS011;12054;53.662;10.126;2022-12-07T03:47:58;4.97;;;2.10;;
23747;SDS011;12054;53.662;10.126;2022-12-07T03:50:35;2.92;;;1.55;;
23747;SDS011;12054;53.662;10.126;2022-12-07T03:56:01;2.92;;;1.75;;
23747;SDS011;12054;53.662;10.126;2022-12-07T03:58:27;3.80;;;2.00;;
23747;SDS011;12054;53.662;10.126;2022-12-07T04:00:54;4.25;;;1.90;;
23747;SDS011;12054;53.662;10.126;2022-12-07T04:03:20;2.85;;;1.60;;
23747;SDS011;12054;53.662;10.126;2022-12-07T04:05:45;3.03;;;1.88;;
23747;SDS011;12054;53.662;10.126;2022-12-07T04:08:11;3.47;;;2.20;;
23747;SDS011;12054;53.662;10.126;2022-12-07T04:10:37;4.97;;;1.80;;
23747;SDS011;12054;53.662;10.126;2022-12-07T04:13:03;2.83;;;1.90;;
23747;SDS011;12054;53.662;10.126;2022-12-07T04:15:28;6.32;;;1.90;;
23747;SDS011;12054;53.662;10.126;2022-12-07T04:17:54;3.15;;;1.73;;
23747;SDS011;12054;53.662;10.126;2022-12-07T04:20:19;3.25;;;1.88;;
23747;SDS011;12054;53.662;10.126;2022-12-07T04:22:46;3.78;;;1.83;;
23747;SDS011;12054;53.662;10.126;2022-12-07T04:25:12;3.15;;;2.17;;
23747;SDS011;12054;53.662;10.126;2022-12-07T04:27:37;2.67;;;1.73;;
23747;SDS011;12054;53.662;10.126;2022-12-07T04:30:03;5.80;;;2.20;;
23747;SDS011;12054;53.662;10.126;2022-12-07T04:32:29;3.53;;;1.80;;
23747;SDS011;12054;53.662;10.126;2022-12-07T04:34:54;3.25;;;1.80;;
23747;SDS011;12054;53.662;10.126;2022-12-07T04:37:20;5.03;;;2.17;;
23747;SDS011;12054;53.662;10.126;2022-12-07T04:39:45;3.50;;;2.17;;
23747;SDS011;12054;53.662;10.126;2022-12-07T04:42:11;5.50;;;2.15;;
23747;SDS011;12054;53.662;10.126;2022-12-07T04:44:37;2.97;;;1.90;;
23747;SDS011;12054;53.662;10.126;2022-12-07T04:47:03;3.67;;;2.13;;
23747;SDS011;12054;53.662;10.126;2022-12-07T04:49:29;2.63;;;1.83;;
23747;SDS011;12054;53.662;10.126;2022-12-07T04:51:54;2.22;;;1.50;;
23747;SDS011;12054;53.662;10.126;2022-12-07T04:54:20;5.55;;;2.03;;
23747;SDS011;12054;53.662;10.126;2022-12-07T04:56:46;4.45;;;2.10;;
23747;SDS011;12054;53.662;10.126;2022-12-07T04:59:12;3.22;;;2.00;;
23747;SDS011;12054;53.662;10.126;2022-12-07T05:01:39;5.10;;;2.17;;
23747;SDS011;12054;53.662;10.126;2022-12-07T05:04:05;4.25;;;2.10;;
23747;SDS011;12054;53.662;10.126;2022-12-07T05:06:30;5.55;;;3.25;;
23747;SDS011;12054;53.662;10.126;2022-12-07T05:08:56;5.47;;;2.63;;
23747;SDS011;12054;53.662;10.126;2022-12-07T05:11:22;3.80;;;2.30;;
23747;SDS011;12054;53.662;10.126;2022-12-07T05:14:09;4.65;;;2.25;;
23747;SDS011;12054;53.662;10.126;2022-12-07T05:16:43;3.83;;;2.25;;
23747;SDS011;12054;53.662;10.126;2022-12-07T05:19:11;4.07;;;2.20;;
23747;SDS011;12054;53.662;10.126;2022-12-07T05:21:36;3.45;;;2.17;;
23747;SDS011;12054;53.662;10.126;2022-12-07T05:24:03;5.90;;;2.30;;
23747;SDS011;12054;53.662;10.126;2022-12-07T05:26:29;2.92;;;2.28;;
23747;SDS011;12054;53.662;10.126;2022-12-07T05:28:55;4.07;;;2.63;;
23747;SDS011;12054;53.662;10.126;2022-12-07T05:31:21;4.70;;;2.30;;
23747;SDS011;12054;53.662;10.126;2022-12-07T05:33:48;3.70;;;2.40;;
23747;SDS011;12054;53.662;10.126;2022-12-07T05:36:14;6.13;;;2.72;;
23747;SDS011;12054;53.662;10.126;2022-12-07T05:38:40;4.47;;;2.38;;
23747;SDS011;12054;53.662;10.126;2022-12-07T05:41:06;3.78;;;2.15;;
23747;SDS011;12054;53.662;10.126;2022-12-07T05:43:32;4.88;;;2.60;;
23747;SDS011;12054;53.662;10.126;2022-12-07T05:45:58;4.32;;;2.92;;
23747;SDS011;12054;53.662;10.126;2022-12-07T05:48:24;5.18;;;2.78;;
23747;SDS011;12054;53.662;10.126;2022-12-07T05:50:50;3.25;;;2.53;;
23747;SDS011;12054;53.662;10.126;2022-12-07T05:53:16;5.35;;;2.67;;
23747;SDS011;12054;53.662;10.126;2022-12-07T05:55:43;5.20;;;2.85;;
23747;SDS011;12054;53.662;10.126;2022-12-07T05:58:08;7.03;;;2.95;;
23747;SDS011;12054;53.662;10.126;2022-12-07T06:00:56;3.60;;;2.50;;
23747;SDS011;12054;53.662;10.126;2022-12-07T06:03:22;4.47;;;2.70;;
23747;SDS011;12054;53.662;10.126;2022-12-07T06:05:48;6.53;;;2.88;;
23747;SDS011;12054;53.662;10.126;2022-12-07T06:08:13;8.13;;;3.50;;
23747;SDS011;12054;53.662;10.126;2022-12-07T06:10:40;9.52;;;3.45;;
23747;SDS011;12054;53.662;10.126;2022-12-07T06:13:06;4.25;;;2.92;;
23747;SDS011;12054;53.662;10.126;2022-12-07T06:15:32;8.52;;;3.55;;
23747;SDS011;12054;53.662;10.126;2022-12-07T06:17:57;7.75;;;3.33;;
23747;SDS011;12054;53.662;10.126;2022-12-07T06:20:23;6.60;;;3.50;;
23747;SDS011;12054;53.662;10.126;2022-12-07T06:22:49;5.93;;;3.85;;
23747;SDS011;12054;53.662;10.126;2022-12-07T06:25:15;6.25;;;3.47;;
23747;SDS011;12054;53.662;10.126;2022-12-07T06:27:40;7.07;;;3.65;;
23747;SDS011;12054;53.662;10.126;2022-12-07T06:30:06;7.47;;;4.15;;
23747;SDS011;12054;53.662;10.126;2022-12-07T06:32:33;6.43;;;3.78;;
23747;SDS011;12054;53.662;10.126;2022-12-07T06:34:59;7.07;;;3.33;;
23747;SDS011;12054;53.662;10.126;2022-12-07T06:37:30;10.80;;;3.95;;
23747;SDS011;12054;53.662;10.126;2022-12-07T06:39:56;7.38;;;3.88;;
23747;SDS011;12054;53.662;10.126;2022-12-07T06:42:22;4.80;;;3.47;;
23747;SDS011;12054;53.662;10.126;2022-12-07T06:44:48;6.40;;;3.95;;
23747;SDS011;12054;53.662;10.126;2022-12-07T06:47:23;8.75;;;3.78;;
23747;SDS011;12054;53.662;10.126;2022-12-07T06:49:57;8.27;;;3.85;;
23747;SDS011;12054;53.662;10.126;2022-12-07T06:52:30;6.50;;;3.47;;
23747;SDS011;12054;53.662;10.126;2022-12-07T06:54:57;6.07;;;3.58;;
23747;SDS011;12054;53.662;10.126;2022-12-07T06:57:23;5.13;;;3.13;;
23747;SDS011;12054;53.662;10.126;2022-12-07T06:59:49;6.70;;;3.70;;
23747;SDS011;12054;53.662;10.126;2022-12-07T07:02:14;5.72;;;3.45;;
23747;SDS011;12054;53.662;10.126;2022-12-07T07:04:40;8.25;;;3.60;;
23747;SDS011;12054;53.662;10.126;2022-12-07T07:07:05;7.47;;;3.45;;
23747;SDS011;12054;53.662;10.126;2022-12-07T07:09:31;8.73;;;3.60;;
23747;SDS011;12054;53.662;10.126;2022-12-07T07:11:56;7.35;;;3.17;;
23747;SDS011;12054;53.662;10.126;2022-12-07T07:14:23;5.78;;;3.35;;
23747;SDS011;12054;53.662;10.126;2022-12-07T07:16:48;7.40;;;4.05;;
23747;SDS011;12054;53.662;10.126;2022-12-07T07:19:14;7.18;;;3.55;;
23747;SDS011;12054;53.662;10.126;2022-12-07T07:21:39;5.90;;;3.40;;
23747;SDS011;12054;53.662;10.126;2022-12-07T07:24:05;7.65;;;3.03;;
23747;SDS011;12054;53.662;10.126;2022-12-07T07:26:31;6.35;;;3.65;;
23747;SDS011;12054;53.662;10.126;2022-12-07T07:28:59;5.32;;;3.35;;
23747;SDS011;12054;53.662;10.126;2022-12-07T07:31:25;10.27;;;3.33;;
23747;SDS011;12054;53.662;10.126;2022-12-07T07:33:50;6.07;;;3.25;;
23747;SDS011;12054;53.662;10.126;2022-12-07T07:36:16;7.00;;;3.08;;
23747;SDS011;12054;53.662;10.126;2022-12-07T07:38:41;7.53;;;3.38;;
23747;SDS011;12054;53.662;10.126;2022-12-07T07:41:07;6.25;;;3.08;;
23747;SDS011;12054;53.662;10.126;2022-12-07T07:43:32;5.13;;;3.00;;
23747;SDS011;12054;53.662;10.126;2022-12-07T07:45:58;5.95;;;3.05;;
23747;SDS011;12054;53.662;10.126;2022-12-07T07:48:24;7.35;;;2.90;;
23747;SDS011;12054;53.662;10.126;2022-12-07T07:50:50;6.55;;;3.15;;
23747;SDS011;12054;53.662;10.126;2022-12-07T07:53:16;7.53;;;3.20;;
23747;SDS011;12054;53.662;10.126;2022-12-07T07:55:41;7.10;;;3.03;;
23747;SDS011;12054;53.662;10.126;2022-12-07T07:58:16;12.60;;;3.22;;
23747;SDS011;12054;53.662;10.126;2022-12-07T08:00:41;6.03;;;2.83;;
23747;SDS011;12054;53.662;10.126;2022-12-07T08:03:07;5.38;;;2.70;;
23747;SDS011;12054;53.662;10.126;2022-12-07T08:05:32;3.50;;;2.30;;
23747;SDS011;12054;53.662;10.126;2022-12-07T08:07:58;5.10;;;2.65;;
23747;SDS011;12054;53.662;10.126;2022-12-07T08:10:24;4.65;;;2.42;;
23747;SDS011;12054;53.662;10.126;2022-12-07T08:12:49;4.95;;;2.58;;
23747;SDS011;12054;53.662;10.126;2022-12-07T08:15:33;4.63;;;2.47;;
23747;SDS011;12054;53.662;10.126;2022-12-07T08:18:02;9.02;;;2.60;;
23747;SDS011;12054;53.662;10.126;2022-12-07T08:20:29;4.95;;;2.20;;
23747;SDS011;12054;53.662;10.126;2022-12-07T08:22:55;4.80;;;2.10;;
23747;SDS011;12054;53.662;10.126;2022-12-07T08:25:21;4.85;;;2.08;;
23747;SDS011;12054;53.662;10.126;2022-12-07T08:27:47;5.95;;;2.60;;
23747;SDS011;12054;53.662;10.126;2022-12-07T08:30:13;5.15;;;1.95;;
23747;SDS011;12054;53.662;10.126;2022-12-07T08:32:39;4.03;;;1.55;;
23747;SDS011;12054;53.662;10.126;2022-12-07T08:35:05;7.30;;;2.30;;
23747;SDS011;12054;53.662;10.126;2022-12-07T08:37:31;3.47;;;2.05;;
23747;SDS011;12054;53.662;10.126;2022-12-07T08:39:59;7.65;;;2.30;;
23747;SDS011;12054;53.662;10.126;2022-12-07T08:42:25;8.15;;;2.42;;
23747;SDS011;12054;53.662;10.126;2022-12-07T08:44:54;5.28;;;2.25;;
23747;SDS011;12054;53.662;10.126;2022-12-07T08:47:38;6.13;;;2.30;;
23747;SDS011;12054;53.662;10.126;2022-12-07T08:50:09;5.00;;;2.40;;
23747;SDS011;12054;53.662;10.126;2022-12-07T08:52:43;6.65;;;2.10;;
23747;SDS011;12054;53.662;10.126;2022-12-07T08:55:11;5.55;;;2.15;;
23747;SDS011;12054;53.662;10.126;2022-12-07T08:57:49;5.43;;;2.03;;
23747;SDS011;12054;53.662;10.126;2022-12-07T09:00:15;8.23;;;2.13;;
23747;SDS011;12054;53.662;10.126;2022-12-07T09:02:44;5.80;;;2.13;;
23747;SDS011;12054;53.662;10.126;2022-12-07T09:05:10;8.98;;;2.10;;
23747;SDS011;12054;53.662;10.126;2022-12-07T09:10:10;11.30;;;2.70;;
23747;SDS011;12054;53.662;10.126;2022-12-07T09:12:36;6.63;;;1.95;;
23747;SDS011;12054;53.662;10.126;2022-12-07T09:15:01;5.97;;;2.63;;
23747;SDS011;12054;53.662;10.126;2022-12-07T09:17:28;6.40;;;2.00;;
23747;SDS011;12054;53.662;10.126;2022-12-07T09:19:58;5.20;;;1.48;;
23747;SDS011;12054;53.662;10.126;2022-12-07T09:22:41;10.82;;;2.30;;
23747;SDS011;12054;53.662;10.126;2022-12-07T09:25:07;7.65;;;2.13;;
23747;SDS011;12054;53.662;10.126;2022-12-07T09:27:33;5.13;;;2.08;;
23747;SDS011;12054;53.662;10.126;2022-12-07T09:30:05;6.75;;;1.77;;
23747;SDS011;12054;53.662;10.126;2022-12-07T09:32:31;8.32;;;2.10;;
23747;SDS011;12054;53.662;10.126;2022-12-07T09:35:00;4.63;;;1.52;;
23747;SDS011;12054;53.662;10.126;2022-12-07T09:37:26;7.53;;;1.88;;
23747;SDS011;12054;53.662;10.126;2022-12-07T09:39:51;8.30;;;2.40;;
23747;SDS011;12054;53.662;10.126;2022-12-07T09:42:26;6.18;;;1.88;;
23747;SDS011;12054;53.662;10.126;2022-12-07T09:44:52;8.60;;;2.05;;
23747;SDS011;12054;53.662;10.126;2022-12-07T09:47:18;5.85;;;1.95;;
23747;SDS011;12054;53.662;10.126;2022-12-07T09:49:47;7.10;;;2.53;;
23747;SDS011;12054;53.662;10.126;2022-12-07T09:52:26;6.38;;;1.73;;
23747;SDS011;12054;53.662;10.126;2022-12-07T09:54:54;10.40;;;2.20;;
23747;SDS011;12054;53.662;10.126;2022-12-07T09:57:24;6.18;;;1.85;;
23747;SDS011;12054;53.662;10.126;2022-12-07T09:59:56;8.60;;;2.40;;
23747;SDS011;12054;53.662;10.126;2022-12-07T10:05:13;6.10;;;1.77;;
23747;SDS011;12054;53.662;10.126;2022-12-07T10:07:41;7.97;;;1.98;;
23747;SDS011;12054;53.662;10.126;2022-12-07T10:10:12;7.25;;;2.45;;
23747;SDS011;12054;53.662;10.126;2022-12-07T10:12:58;7.10;;;1.95;;
23747;SDS011;12054;53.662;10.126;2022-12-07T10:21:04;7.55;;;2.20;;
23747;SDS011;12054;53.662;10.126;2022-12-07T10:23:34;8.40;;;2.10;;
23747;SDS011;12054;53.662;10.126;2022-12-07T10:28:46;6.30;;;2.35;;
23747;SDS011;12054;53.662;10.126;2022-12-07T10:31:17;9.35;;;1.80;;
23747;SDS011;12054;53.662;10.126;2022-12-07T10:33:53;4.60;;;1.55;;
23747;SDS011;12054;53.662;10.126;2022-12-07T10:38:58;4.95;;;1.45;;
23747;SDS011;12054;53.662;10.126;2022-12-07T10:41:26;6.30;;;1.83;;
23747;SDS011;12054;53.662;10.126;2022-12-07T10:43:53;7.78;;;1.77;;
23747;SDS011;12054;53.662;10.126;2022-12-07T10:46:37;5.00;;;1.95;;
23747;SDS011;12054;53.662;10.126;2022-12-07T10:52:20;4.13;;;1.75;;
23747;SDS011;12054;53.662;10.126;2022-12-07T11:00:21;5.38;;;1.40;;
23747;SDS011;12054;53.662;10.126;2022-12-07T11:02:53;7.13;;;1.02;;
23747;SDS011;12054;53.662;10.126;2022-12-07T11:11:09;9.85;;;1.30;;
23747;SDS011;12054;53.662;10.126;2022-12-07T11:19:05;6.55;;;1.35;;
23747;SDS011;12054;53.662;10.126;2022-12-07T11:21:48;10.82;;;1.50;;
23747;SDS011;12054;53.662;10.126;2022-12-07T11:32:47;4.60;;;1.20;;
23747;SDS011;12054;53.662;10.126;2022-12-07T11:35:21;7.13;;;1.35;;
23747;SDS011;12054;53.662;10.126;2022-12-07T11:37:59;6.70;;;1.42;;
23747;SDS011;12054;53.662;10.126;2022-12-07T11:40:34;6.70;;;1.50;;
23747;SDS011;12054;53.662;10.126;2022-12-07T11:43:04;5.13;;;1.33;;
23747;SDS011;12054;53.662;10.126;2022-12-07T11:45:37;7.80;;;1.08;;
23747;SDS011;12054;53.662;10.126;2022-12-07T11:48:21;5.63;;;1.00;;
23747;SDS011;12054;53.662;10.126;2022-12-07T11:50:57;3.72;;;1.08;;
23747;SDS011;12054;53.662;10.126;2022-12-07T11:56:08;4.22;;;1.30;;
23747;SDS011;12054;53.662;10.126;2022-12-07T11:58:45;7.47;;;1.50;;
23747;SDS011;12054;53.662;10.126;2022-12-07T12:06:36;4.72;;;1.30;;
23747;SDS011;12054;53.662;10.126;2022-12-07T12:20:26;4.00;;;1.20;;
23747;SDS011;12054;53.662;10.126;2022-12-07T12:23:04;5.60;;;1.27;;
23747;SDS011;12054;53.662;10.126;2022-12-07T12:25:36;10.23;;;1.52;;
23747;SDS011;12054;53.662;10.126;2022-12-07T12:28:15;6.43;;;1.30;;
23747;SDS011;12054;53.662;10.126;2022-12-07T12:31:03;6.38;;;1.45;;
23747;SDS011;12054;53.662;10.126;2022-12-07T12:33:34;5.18;;;1.40;;
23747;SDS011;12054;53.662;10.126;2022-12-07T12:36:18;2.88;;;1.08;;
23747;SDS011;12054;53.662;10.126;2022-12-07T12:44:46;4.15;;;0.70;;
23747;SDS011;12054;53.662;10.126;2022-12-07T12:46:57;5.15;;;1.00;;
23747;SDS011;12054;53.662;10.126;2022-12-07T12:51:57;4.85;;;0.98;;
23747;SDS011;12054;53.662;10.126;2022-12-07T13:04:56;3.47;;;0.75;;
23747;SDS011;12054;53.662;10.126;2022-12-07T13:10:36;4.03;;;0.88;;
23747;SDS011;12054;53.662;10.126;2022-12-07T13:15:37;3.38;;;0.77;;
23747;SDS011;12054;53.662;10.126;2022-12-07T13:20:47;2.20;;;0.60;;
23747;SDS011;12054;53.662;10.126;2022-12-07T13:23:16;2.08;;;0.75;;
23747;SDS011;12054;53.662;10.126;2022-12-07T13:25:48;4.97;;;0.80;;
23747;SDS011;12054;53.662;10.126;2022-12-07T13:28:19;3.00;;;0.73;;
23747;SDS011;12054;53.662;10.126;2022-12-07T13:33:34;2.30;;;0.70;;
23747;SDS011;12054;53.662;10.126;2022-12-07T13:36:00;3.17;;;0.60;;
23747;SDS011;12054;53.662;10.126;2022-12-07T13:38:28;5.85;;;0.88;;
23747;SDS011;12054;53.662;10.126;2022-12-07T13:43:45;3.25;;;0.80;;
23747;SDS011;12054;53.662;10.126;2022-12-07T13:51:49;2.17;;;0.60;;
23747;SDS011;12054;53.662;10.126;2022-12-07T13:54:16;3.15;;;0.88;;
23747;SDS011;12054;53.662;10.126;2022-12-07T13:56:42;3.30;;;0.70;;
23747;SDS011;12054;53.662;10.126;2022-12-07T13:59:13;1.77;;;0.70;;
23747;SDS011;12054;53.662;10.126;2022-12-07T14:01:41;3.75;;;0.70;;
23747;SDS011;12054;53.662;10.126;2022-12-07T14:06:58;4.20;;;0.75;;
23747;SDS011;12054;53.662;10.126;2022-12-07T14:09:26;3.45;;;0.60;;
23747;SDS011;12054;53.662;10.126;2022-12-07T14:11:53;1.70;;;0.70;;
23747;SDS011;12054;53.662;10.126;2022-12-07T14:14:22;5.85;;;0.75;;
23747;SDS011;12054;53.662;10.126;2022-12-07T14:16:58;1.55;;;0.57;;
23747;SDS011;12054;53.662;10.126;2022-12-07T14:19:41;1.83;;;0.50;;
23747;SDS011;12054;53.662;10.126;2022-12-07T14:27:34;1.98;;;0.50;;
23747;SDS011;12054;53.662;10.126;2022-12-07T14:30:00;3.58;;;0.75;;
23747;SDS011;12054;53.662;10.126;2022-12-07T14:32:27;1.38;;;0.50;;
23747;SDS011;12054;53.662;10.126;2022-12-07T14:34:55;2.75;;;1.05;;
23747;SDS011;12054;53.662;10.126;2022-12-07T14:37:22;0.90;;;0.50;;
23747;SDS011;12054;53.662;10.126;2022-12-07T14:39:48;3.60;;;0.70;;
23747;SDS011;12054;53.662;10.126;2022-12-07T14:42:14;2.45;;;0.57;;
23747;SDS011;12054;53.662;10.126;2022-12-07T14:44:42;5.53;;;0.88;;
23747;SDS011;12054;53.662;10.126;2022-12-07T14:47:11;3.35;;;0.70;;
23747;SDS011;12054;53.662;10.126;2022-12-07T14:49:37;4.07;;;0.82;;
23747;SDS011;12054;53.662;10.126;2022-12-07T14:52:03;5.13;;;0.85;;
23747;SDS011;12054;53.662;10.126;2022-12-07T14:54:31;5.30;;;0.90;;
23747;SDS011;12054;53.662;10.126;2022-12-07T14:56:57;3.00;;;0.90;;
23747;SDS011;12054;53.662;10.126;2022-12-07T14:59:23;3.85;;;0.80;;
23747;SDS011;12054;53.662;10.126;2022-12-07T15:01:49;6.15;;;1.00;;
23747;SDS011;12054;53.662;10.126;2022-12-07T15:04:14;1.95;;;0.65;;
23747;SDS011;12054;53.662;10.126;2022-12-07T15:06:40;2.95;;;0.90;;
23747;SDS011;12054;53.662;10.126;2022-12-07T15:09:08;3.60;;;1.33;;
23747;SDS011;12054;53.662;10.126;2022-12-07T15:11:36;4.38;;;1.25;;
23747;SDS011;12054;53.662;10.126;2022-12-07T15:14:02;5.13;;;1.02;;
23747;SDS011;12054;53.662;10.126;2022-12-07T15:16:33;2.10;;;0.90;;
23747;SDS011;12054;53.662;10.126;2022-12-07T15:19:00;3.92;;;1.00;;
23747;SDS011;12054;53.662;10.126;2022-12-07T15:21:25;3.60;;;0.93;;
23747;SDS011;12054;53.662;10.126;2022-12-07T15:23:51;6.20;;;1.13;;
23747;SDS011;12054;53.662;10.126;2022-12-07T15:26:16;1.58;;;0.98;;
23747;SDS011;12054;53.662;10.126;2022-12-07T15:28:42;2.25;;;0.80;;
23747;SDS011;12054;53.662;10.126;2022-12-07T15:31:14;3.45;;;1.42;;
23747;SDS011;12054;53.662;10.126;2022-12-07T15:33:41;1.40;;;0.80;;
23747;SDS011;12054;53.662;10.126;2022-12-07T15:36:07;1.35;;;0.80;;
23747;SDS011;12054;53.662;10.126;2022-12-07T15:38:33;3.38;;;0.93;;
23747;SDS011;12054;53.662;10.126;2022-12-07T15:40:59;1.50;;;0.75;;
23747;SDS011;12054;53.662;10.126;2022-12-07T15:43:25;2.15;;;0.90;;
23747;SDS011;12054;53.662;10.126;2022-12-07T15:46:09;4.78;;;1.08;;
23747;SDS011;12054;53.662;10.126;2022-12-07T15:48:34;1.95;;;1.08;;
23747;SDS011;12054;53.662;10.126;2022-12-07T15:51:03;3.70;;;0.85;;
23747;SDS011;12054;53.662;10.126;2022-12-07T15:53:30;2.80;;;0.77;;
23747;SDS011;12054;53.662;10.126;2022-12-07T15:55:56;3.15;;;0.98;;
23747;SDS011;12054;53.662;10.126;2022-12-07T15:58:21;2.25;;;0.90;;
23747;SDS011;12054;53.662;10.126;2022-12-07T16:00:47;4.25;;;1.20;;
23747;SDS011;12054;53.662;10.126;2022-12-07T16:03:13;5.78;;;1.25;;
23747;SDS011;12054;53.662;10.126;2022-12-07T16:05:38;4.60;;;0.90;;
23747;SDS011;12054;53.662;10.126;2022-12-07T16:08:04;4.47;;;1.48;;
23747;SDS011;12054;53.662;10.126;2022-12-07T16:10:30;3.85;;;1.27;;
23747;SDS011;12054;53.662;10.126;2022-12-07T16:12:56;4.20;;;1.42;;
23747;SDS011;12054;53.662;10.126;2022-12-07T16:15:21;2.67;;;1.20;;
23747;SDS011;12054;53.662;10.126;2022-12-07T16:17:49;7.07;;;1.60;;
23747;SDS011;12054;53.662;10.126;2022-12-07T16:20:15;4.72;;;1.55;;
23747;SDS011;12054;53.662;10.126;2022-12-07T16:22:40;3.72;;;1.40;;
23747;SDS011;12054;53.662;10.126;2022-12-07T16:25:08;2.47;;;1.20;;
23747;SDS011;12054;53.662;10.126;2022-12-07T16:27:34;2.70;;;1.25;;
23747;SDS011;12054;53.662;10.126;2022-12-07T16:30:00;4.43;;;1.42;;
23747;SDS011;12054;53.662;10.126;2022-12-07T16:32:25;3.90;;;1.58;;
23747;SDS011;12054;53.662;10.126;2022-12-07T16:34:51;3.67;;;1.35;;
23747;SDS011;12054;53.662;10.126;2022-12-07T16:37:16;3.85;;;1.95;;
23747;SDS011;12054;53.662;10.126;2022-12-07T16:39:48;4.55;;;2.85;;
23747;SDS011;12054;53.662;10.126;2022-12-07T16:42:14;2.88;;;2.30;;
23747;SDS011;12054;53.662;10.126;2022-12-07T16:44:42;4.68;;;2.28;;
23747;SDS011;12054;53.662;10.126;2022-12-07T16:47:07;5.10;;;1.90;;
23747;SDS011;12054;53.662;10.126;2022-12-07T16:49:33;3.65;;;1.95;;
23747;SDS011;12054;53.662;10.126;2022-12-07T16:51:59;3.33;;;1.73;;
23747;SDS011;12054;53.662;10.126;2022-12-07T16:54:25;3.55;;;2.00;;
23747;SDS011;12054;53.662;10.126;2022-12-07T16:56:53;3.85;;;2.03;;
23747;SDS011;12054;53.662;10.126;2022-12-07T16:59:19;4.15;;;2.00;;